Time;durP1;ratioP1;P1;durP2;ratioP2;P2;SDS_P1;SDS_P2;PMS_P1;PMS_P2;Temp;Humidity;BMP_temperature;BMP_pressure;BME280_temperature;BME280_humidity;BME280_pressure;Samples;Min_cycle;Max_cycle;Signal;HPM_P1;HPM_P2
2023/01/10 00:01:44;;;;;;;3.63;0.90;;;;;;;9.38;73.14;100283.84;5031981;28;20215;-70
2023/01/10 00:04:11;;;;;;;3.47;0.97;;;;;;;9.38;73.18;100293.59;5033225;28;20203;-69
2023/01/10 00:06:39;;;;;;;1.60;0.70;;;;;;;9.44;72.83;100298.31;5031625;28;20275;-72
2023/01/10 00:09:09;;;;;;;1.67;0.73;;;;;;;9.55;72.45;100299.94;5031742;28;20209;-72
2023/01/10 00:14:23;;;;;;;2.37;0.80;;;;;;;9.62;72.00;100298.38;5033500;28;20266;-73
2023/01/10 00:16:52;;;;;;;4.93;0.90;;;;;;;9.67;71.57;100304.91;5030190;28;20217;-70
2023/01/10 00:19:22;;;;;;;1.90;0.83;;;;;;;9.62;71.38;100301.84;5031911;28;20208;-75
2023/01/10 00:21:50;;;;;;;2.33;0.80;;;;;;;9.59;71.03;100307.44;5029753;28;20209;-73
2023/01/10 00:24:20;;;;;;;2.83;0.63;;;;;;;9.53;70.67;100310.66;5028919;28;20308;-74
2023/01/10 00:26:50;;;;;;;2.80;0.80;;;;;;;9.49;70.51;100317.25;5026841;28;20295;-71
2023/01/10 00:29:19;;;;;;;2.10;0.63;;;;;;;9.45;70.19;100339.69;5032092;28;20635;-71
2023/01/10 00:31:47;;;;;;;2.30;0.67;;;;;;;9.46;70.06;100348.44;5032614;28;20205;-70
2023/01/10 00:34:15;;;;;;;0.87;0.40;;;;;;;9.46;69.13;100361.69;5033217;28;20236;-71
2023/01/10 00:36:44;;;;;;;0.30;0.20;;;;;;;9.42;68.43;100359.31;5030334;28;20536;-70
2023/01/10 00:39:12;;;;;;;1.97;0.30;;;;;;;9.33;68.05;100360.16;5027204;28;20238;-70
2023/01/10 00:44:27;;;;;;;1.40;0.47;;;;;;;9.20;68.11;100383.47;5026692;28;20731;-73
2023/01/10 00:46:55;;;;;;;1.07;0.30;;;;;;;9.17;67.93;100386.38;5027823;28;20652;-72
2023/01/10 00:49:22;;;;;;;0.20;0.20;;;;;;;9.19;67.86;100395.03;5026820;28;20760;-73
2023/01/10 00:51:50;;;;;;;0.70;0.20;;;;;;;9.23;67.56;100401.72;5027259;28;20350;-73
2023/01/10 00:54:18;;;;;;;0.13;0.10;;;;;;;9.21;67.75;100401.00;5020322;28;20235;-70
2023/01/10 00:56:47;;;;;;;0.20;0.20;;;;;;;9.20;67.09;100420.50;5024843;28;20220;-71
2023/01/10 00:59:15;;;;;;;2.63;1.30;;;;;;;9.16;67.03;100432.31;5029040;28;20283;-70
2023/01/10 01:01:42;;;;;;;0.67;0.20;;;;;;;9.08;67.20;100429.56;5028498;28;20411;-72
2023/01/10 01:04:10;;;;;;;1.50;0.30;;;;;;;9.08;67.09;100434.84;5027753;28;20208;-72
2023/01/10 01:06:38;;;;;;;0.27;0.20;;;;;;;9.12;66.90;100438.91;5028200;28;20248;-72
2023/01/10 01:09:06;;;;;;;1.47;0.60;;;;;;;9.13;66.77;100452.97;5032452;28;20306;-72
2023/01/10 01:11:33;;;;;;;1.53;0.20;;;;;;;9.15;66.63;100451.81;5028353;28;20220;-69
2023/01/10 01:14:03;;;;;;;1.83;0.70;;;;;;;9.18;66.46;100456.84;5028630;28;20231;-73
2023/01/10 01:16:30;;;;;;;0.50;0.23;;;;;;;9.12;66.38;100473.28;5031771;28;20215;-72
2023/01/10 01:18:58;;;;;;;1.57;0.67;;;;;;;9.09;66.33;100473.56;5031419;28;20223;-70
2023/01/10 01:21:27;;;;;;;1.70;0.50;;;;;;;9.04;66.17;100481.91;5033643;28;20212;-73
2023/01/10 01:23:56;;;;;;;1.83;0.47;;;;;;;8.99;66.25;100489.41;5032557;28;20215;-72
2023/01/10 01:26:24;;;;;;;1.50;0.30;;;;;;;8.94;66.42;100501.38;5027828;28;20216;-73
2023/01/10 01:28:52;;;;;;;2.17;0.40;;;;;;;8.92;66.74;100503.31;5027623;28;20201;-72
2023/01/10 01:31:21;;;;;;;2.00;0.40;;;;;;;8.94;66.90;100517.25;5031419;28;20613;-74
2023/01/10 01:33:50;;;;;;;2.03;0.43;;;;;;;8.97;66.79;100522.28;5029844;28;20292;-71
2023/01/10 01:36:18;;;;;;;2.03;0.50;;;;;;;8.92;66.71;100537.69;5024140;28;20211;-71
2023/01/10 01:38:46;;;;;;;1.43;0.90;;;;;;;8.96;66.76;100528.53;5026045;28;20291;-70
2023/01/10 01:44:03;;;;;;;1.43;0.30;;;;;;;8.94;66.47;100549.00;5025565;28;20311;-70
2023/01/10 01:46:35;;;;;;;1.20;0.50;;;;;;;8.89;66.45;100561.75;5025727;28;20223;-74
2023/01/10 01:49:05;;;;;;;1.57;0.30;;;;;;;8.85;66.82;100558.56;5023237;28;20216;-71
2023/01/10 01:51:35;;;;;;;0.97;0.37;;;;;;;8.86;66.75;100568.19;5023820;28;20302;-68
2023/01/10 01:54:07;;;;;;;1.90;0.60;;;;;;;8.91;66.42;100562.47;5023213;28;20204;-73
2023/01/10 01:56:41;;;;;;;2.10;0.53;;;;;;;8.93;66.45;100577.25;5021829;28;20297;-72
2023/01/10 01:59:13;;;;;;;2.93;0.40;;;;;;;8.94;66.31;100584.22;5022089;28;20195;-70
2023/01/10 02:01:46;;;;;;;2.97;0.30;;;;;;;8.95;66.45;100585.03;5023772;28;20212;-74
2023/01/10 02:04:18;;;;;;;2.77;0.67;;;;;;;8.98;66.52;100590.03;5024132;28;20215;-70
2023/01/10 02:06:50;;;;;;;2.00;0.60;;;;;;;8.99;66.07;100583.78;5025818;28;20371;-72
2023/01/10 02:09:23;;;;;;;2.57;0.50;;;;;;;8.97;66.09;100598.97;5025282;28;20235;-72
2023/01/10 02:11:51;;;;;;;1.93;0.53;;;;;;;8.91;66.19;100591.56;5026337;28;20209;-73
2023/01/10 02:14:20;;;;;;;4.47;0.60;;;;;;;8.90;66.51;100603.09;5023543;28;20222;-70
2023/01/10 02:16:49;;;;;;;1.13;0.47;;;;;;;8.87;66.52;100601.59;5021653;28;20222;-73
2023/01/10 02:19:26;;;;;;;1.53;0.40;;;;;;;8.93;66.47;100605.50;5023029;28;20566;-71
2023/01/10 02:22:20;;;;;;;2.33;0.50;;;;;;;8.88;66.22;100610.38;5023109;28;20310;-75
2023/01/10 02:25:37;;;;;;;3.43;0.63;;;;;;;8.90;66.19;100617.16;5026321;28;20319;-73
2023/01/10 02:28:29;;;;;;;1.90;0.50;;;;;;;8.90;66.54;100606.59;5026175;28;20211;-71
2023/01/10 02:31:19;;;;;;;3.37;0.73;;;;;;;8.91;66.17;100610.91;5025037;28;20306;-70
2023/01/10 02:33:55;;;;;;;3.53;1.13;;;;;;;8.89;66.43;100609.38;5024439;28;20204;-72
2023/01/10 02:36:35;;;;;;;3.27;0.67;;;;;;;8.97;66.22;100620.94;5023459;28;21191;-71
2023/01/10 02:39:11;;;;;;;1.40;0.40;;;;;;;9.04;66.16;100626.56;5025939;28;20377;-68
2023/01/10 02:41:45;;;;;;;3.73;0.77;;;;;;;9.16;65.81;100636.03;5026735;28;20287;-72
2023/01/10 02:44:20;;;;;;;3.30;0.70;;;;;;;9.19;65.43;100641.06;5025625;28;20662;-70
2023/01/10 02:46:49;;;;;;;3.60;0.70;;;;;;;9.21;65.10;100635.66;5028629;28;20210;-71
2023/01/10 02:49:18;;;;;;;4.10;1.17;;;;;;;9.22;64.92;100638.19;5026680;28;20231;-72
2023/01/10 02:51:46;;;;;;;2.57;0.77;;;;;;;9.17;64.68;100640.38;5026486;28;20222;-72
2023/01/10 02:54:18;;;;;;;5.50;0.87;;;;;;;9.09;63.77;100642.84;5025935;28;20229;-71
2023/01/10 02:57:18;;;;;;;3.90;0.53;;;;;;;9.00;64.26;100655.06;5026399;28;20763;-72
2023/01/10 03:00:23;;;;;;;3.67;1.10;;;;;;;8.94;64.34;100654.78;5008660;28;20216;-71
2023/01/10 03:03:08;;;;;;;4.60;0.90;;;;;;;8.83;65.07;100662.78;5023854;28;20216;-69
2023/01/10 03:05:50;;;;;;;4.33;0.90;;;;;;;8.77;65.32;100671.25;5024197;28;20695;-71
2023/01/10 03:08:28;;;;;;;5.67;0.87;;;;;;;8.75;65.45;100674.03;5025514;28;20216;-71
2023/01/10 03:10:59;;;;;;;7.63;1.00;;;;;;;8.74;65.66;100679.44;5026929;28;20334;-69
2023/01/10 03:13:31;;;;;;;2.73;0.67;;;;;;;8.60;65.96;100680.63;5024578;28;20223;-71
2023/01/10 03:16:01;;;;;;;6.53;0.80;;;;;;;8.60;65.99;100689.41;5028081;28;20247;-70
2023/01/10 03:18:33;;;;;;;4.53;0.90;;;;;;;8.60;65.71;100689.41;5028392;28;20215;-72
2023/01/10 03:21:06;;;;;;;3.50;0.83;;;;;;;8.66;65.68;100699.44;5028609;28;20243;-72
2023/01/10 03:23:35;;;;;;;5.60;0.90;;;;;;;8.72;65.62;100698.06;5027526;28;20216;-69
2023/01/10 03:26:04;;;;;;;3.87;1.20;;;;;;;8.72;65.23;100699.88;5028221;28;20862;-72
2023/01/10 03:28:37;;;;;;;6.40;1.10;;;;;;;8.66;65.58;100707.38;5025942;28;20965;-73
2023/01/10 03:31:09;;;;;;;5.30;1.00;;;;;;;8.58;65.60;100714.28;5028908;28;20218;-69
2023/01/10 03:33:38;;;;;;;6.07;1.50;;;;;;;8.53;66.21;100722.59;5028012;28;20227;-69
2023/01/10 03:36:15;;;;;;;3.03;1.00;;;;;;;8.55;66.30;100723.31;5028747;28;20353;-72
2023/01/10 03:38:49;;;;;;;5.00;1.40;;;;;;;8.63;66.65;100736.72;5026305;28;20324;-71
2023/01/10 03:41:24;;;;;;;5.17;1.10;;;;;;;8.62;66.99;100740.31;5030157;28;20846;-71
2023/01/10 03:46:51;;;;;;;5.30;1.00;;;;;;;8.61;67.49;100758.97;5026603;28;20230;-73
2023/01/10 03:49:22;;;;;;;4.87;0.90;;;;;;;8.60;67.63;100760.78;5028298;28;20914;-70
2023/01/10 03:51:53;;;;;;;3.00;0.80;;;;;;;8.64;67.64;100766.63;5026529;28;20240;-73
2023/01/10 03:54:21;;;;;;;5.37;1.10;;;;;;;8.63;67.73;100773.72;5024457;28;20207;-70
2023/01/10 03:56:51;;;;;;;7.10;1.30;;;;;;;8.63;68.07;100770.22;5029295;28;20231;-73
2023/01/10 03:59:23;;;;;;;3.57;1.10;;;;;;;8.61;68.21;100777.47;5025262;28;20208;-73
2023/01/10 04:01:52;;;;;;;4.97;1.23;;;;;;;8.51;68.73;100785.34;5029932;28;20203;-73
2023/01/10 04:04:20;;;;;;;4.00;1.13;;;;;;;8.45;68.85;100792.91;5026498;28;20255;-73
2023/01/10 04:06:48;;;;;;;4.70;1.10;;;;;;;8.41;69.24;100794.97;5026706;28;20251;-71
2023/01/10 04:09:17;;;;;;;6.70;1.10;;;;;;;8.46;69.28;100798.06;5022855;28;20297;-72
2023/01/10 04:11:44;;;;;;;5.50;1.67;;;;;;;8.46;69.00;100802.50;5021047;28;20215;-70
2023/01/10 04:14:12;;;;;;;6.03;1.10;;;;;;;8.54;68.70;100806.19;5022880;28;20213;-70
2023/01/10 04:16:40;;;;;;;5.67;1.10;;;;;;;8.56;68.62;100814.84;5020752;28;20242;-73
2023/01/10 04:19:08;;;;;;;3.33;0.90;;;;;;;8.60;68.63;100820.75;5025956;28;20806;-73
2023/01/10 04:21:35;;;;;;;3.40;1.03;;;;;;;8.55;68.48;100829.03;5025619;28;20235;-72
2023/01/10 04:24:03;;;;;;;3.20;1.10;;;;;;;8.51;68.71;100819.69;5021624;28;20303;-72
2023/01/10 04:26:33;;;;;;;6.50;1.47;;;;;;;8.55;68.47;100831.69;5026322;28;20211;-72
2023/01/10 04:29:00;;;;;;;4.83;1.17;;;;;;;8.50;68.74;100831.22;5023675;28;20215;-72
2023/01/10 04:31:28;;;;;;;3.50;1.27;;;;;;;8.52;68.79;100823.19;5023247;28;20327;-69
2023/01/10 04:33:56;;;;;;;3.87;1.20;;;;;;;8.55;68.68;100834.31;5026939;28;20205;-73
2023/01/10 04:36:24;;;;;;;4.83;1.00;;;;;;;8.47;68.78;100826.19;5022617;28;20665;-72
2023/01/10 04:38:51;;;;;;;6.77;1.70;;;;;;;8.47;69.03;100830.63;5028945;28;20352;-72
2023/01/10 04:41:19;;;;;;;5.47;1.10;;;;;;;8.42;69.32;100833.66;5026765;28;20235;-72
2023/01/10 04:43:48;;;;;;;5.40;1.10;;;;;;;8.35;69.62;100842.22;5027949;28;20279;-70
2023/01/10 04:46:16;;;;;;;3.20;1.40;;;;;;;8.33;69.75;100850.25;5026569;28;20242;-70
2023/01/10 04:48:44;;;;;;;9.50;1.60;;;;;;;8.37;69.80;100859.59;5029374;28;20801;-72
2023/01/10 04:51:12;;;;;;;7.87;1.97;;;;;;;8.41;69.75;100863.69;5024221;28;20212;-71
2023/01/10 04:53:40;;;;;;;7.53;2.03;;;;;;;8.47;69.46;100862.34;5021750;28;20216;-74
2023/01/10 04:56:09;;;;;;;6.30;2.47;;;;;;;8.46;69.50;100855.38;5023874;28;20231;-72
2023/01/10 04:58:38;;;;;;;7.37;2.40;;;;;;;8.44;69.78;100860.81;5025701;28;20996;-73
2023/01/10 05:01:11;;;;;;;8.40;2.30;;;;;;;8.44;69.70;100860.81;5026035;28;21056;-72
2023/01/10 05:03:39;;;;;;;6.73;2.07;;;;;;;8.43;70.14;100861.78;5026055;28;20219;-73
2023/01/10 05:06:08;;;;;;;9.47;2.30;;;;;;;8.41;70.37;100870.78;5025530;28;20590;-73
2023/01/10 05:08:36;;;;;;;8.33;1.97;;;;;;;8.42;70.64;100872.47;5024112;28;20215;-72
2023/01/10 05:11:04;;;;;;;6.87;1.97;;;;;;;8.40;70.92;100887.59;5023145;28;20216;-73
2023/01/10 05:13:32;;;;;;;8.87;2.50;;;;;;;8.35;71.04;100889.78;5025658;28;20653;-70
2023/01/10 05:16:00;;;;;;;4.97;1.70;;;;;;;8.31;71.40;100897.09;5025187;28;20209;-70
2023/01/10 05:18:30;;;;;;;6.80;1.97;;;;;;;8.33;71.68;100907.56;5020981;28;20622;-71
2023/01/10 05:21:00;;;;;;;9.70;2.10;;;;;;;8.32;71.87;100912.00;5024920;28;20208;-69
2023/01/10 05:23:28;;;;;;;6.63;2.17;;;;;;;8.31;71.94;100907.69;5024962;28;20692;-72
2023/01/10 05:25:56;;;;;;;7.13;2.00;;;;;;;8.38;71.87;100910.66;5025297;28;20212;-73
2023/01/10 05:28:24;;;;;;;12.27;2.60;;;;;;;8.39;71.82;100902.63;5024480;28;20792;-73
2023/01/10 05:30:52;;;;;;;10.60;4.20;;;;;;;8.45;71.63;100923.25;5023812;28;20208;-71
2023/01/10 05:33:20;;;;;;;13.10;3.60;;;;;;;8.46;71.41;100918.81;5023794;28;20351;-68
2023/01/10 05:35:49;;;;;;;10.97;2.57;;;;;;;8.45;71.31;100915.31;5022177;28;20219;-72
2023/01/10 05:38:16;;;;;;;8.73;2.23;;;;;;;8.46;70.96;100911.72;5021868;28;20236;-72
2023/01/10 05:40:44;;;;;;;6.23;1.77;;;;;;;8.41;71.06;100905.97;5021425;28;20246;-71
2023/01/10 05:43:12;;;;;;;10.70;2.17;;;;;;;8.38;71.30;100916.78;5023955;28;20226;-72
2023/01/10 05:45:40;;;;;;;12.23;2.13;;;;;;;8.33;71.64;100912.84;5027046;28;20227;-69
2023/01/10 05:48:07;;;;;;;10.50;1.80;;;;;;;8.28;71.83;100927.22;5026237;28;20265;-70
2023/01/10 05:50:35;;;;;;;12.33;1.67;;;;;;;8.33;71.59;100924.25;5022906;28;21193;-71
2023/01/10 05:53:06;;;;;;;9.47;1.90;;;;;;;8.33;71.51;100932.19;5023167;28;20301;-72
2023/01/10 05:55:34;;;;;;;9.87;2.13;;;;;;;8.38;71.63;100940.56;5025759;28;20262;-70
2023/01/10 05:58:01;;;;;;;11.60;2.37;;;;;;;8.40;71.49;100943.94;5024344;28;20232;-71
2023/01/10 06:00:29;;;;;;;10.50;2.10;;;;;;;8.45;71.44;100941.75;5022220;28;20303;-73
2023/01/10 06:02:57;;;;;;;15.10;2.50;;;;;;;8.41;71.59;100945.63;5018515;28;22429;-70
2023/01/10 06:05:25;;;;;;;14.27;2.67;;;;;;;8.48;71.20;100949.44;5021065;28;20208;-71
2023/01/10 06:07:53;;;;;;;9.97;1.77;;;;;;;8.52;71.21;100956.19;5023140;28;20242;-73
2023/01/10 06:10:22;;;;;;;11.00;2.37;;;;;;;8.59;70.89;100959.16;5020713;28;20219;-70
2023/01/10 06:12:51;;;;;;;11.20;2.13;;;;;;;8.62;70.35;100967.66;5021540;28;20211;-66
2023/01/10 06:15:19;;;;;;;11.93;2.10;;;;;;;8.61;70.25;100975.75;5023162;28;20204;-67
2023/01/10 06:17:47;;;;;;;8.33;2.00;;;;;;;8.62;70.31;100978.25;5018896;28;20762;-67
2023/01/10 06:20:15;;;;;;;15.73;2.87;;;;;;;8.70;69.80;100980.28;5025325;28;20214;-65
2023/01/10 06:22:43;;;;;;;10.83;2.03;;;;;;;8.70;69.77;100982.94;5030881;28;20300;-65
2023/01/10 06:25:13;;;;;;;11.77;2.33;;;;;;;8.72;69.28;100990.72;5025794;28;20223;-65
2023/01/10 06:27:43;;;;;;;8.07;2.50;;;;;;;8.74;69.23;100996.75;5023000;28;20348;-65
2023/01/10 06:30:12;;;;;;;13.10;2.27;;;;;;;8.77;68.98;100992.06;5025396;28;20214;-65
2023/01/10 06:32:41;;;;;;;13.13;2.53;;;;;;;8.78;68.70;100992.91;5028885;28;20239;-67
2023/01/10 06:35:09;;;;;;;12.60;2.33;;;;;;;8.81;68.81;100992.63;5033150;28;20252;-66
2023/01/10 06:37:38;;;;;;;12.23;2.23;;;;;;;8.77;68.61;101007.06;5026787;28;20232;-66
2023/01/10 06:40:07;;;;;;;12.53;2.33;;;;;;;8.70;68.97;101014.66;5026805;28;20204;-68
2023/01/10 06:42:35;;;;;;;17.03;2.50;;;;;;;8.68;68.93;101022.72;5025605;28;20204;-67
2023/01/10 06:45:05;;;;;;;9.00;2.67;;;;;;;8.70;68.91;101032.34;5026454;28;20217;-67
2023/01/10 06:47:32;;;;;;;17.03;3.07;;;;;;;8.66;68.90;101032.56;5023074;28;20200;-67
2023/01/10 06:50:00;;;;;;;12.10;2.90;;;;;;;8.70;68.91;101040.28;5029192;28;20290;-66
2023/01/10 06:52:28;;;;;;;12.23;2.77;;;;;;;8.65;68.57;101036.16;5031202;28;20714;-66
2023/01/10 06:54:56;;;;;;;12.90;2.77;;;;;;;8.73;68.81;101042.66;5028434;28;20204;-67
2023/01/10 06:57:24;;;;;;;12.50;2.63;;;;;;;8.67;68.32;101021.03;5028262;28;20235;-66
2023/01/10 06:59:52;;;;;;;8.03;2.23;;;;;;;8.57;68.54;101020.06;5029543;28;20205;-67
2023/01/10 07:02:21;;;;;;;12.93;2.50;;;;;;;8.49;68.93;101027.78;5026879;28;20209;-66
2023/01/10 07:04:49;;;;;;;14.03;2.70;;;;;;;8.47;69.41;101032.34;5029747;28;20606;-68
2023/01/10 07:07:16;;;;;;;9.60;2.60;;;;;;;8.46;69.51;101046.50;5028489;28;20321;-66
2023/01/10 07:09:45;;;;;;;13.97;2.57;;;;;;;8.52;69.16;101061.06;5032096;28;20226;-66
2023/01/10 07:12:12;;;;;;;12.10;2.30;;;;;;;8.51;68.76;101076.09;5028459;28;20576;-67
2023/01/10 07:14:40;;;;;;;15.80;3.57;;;;;;;8.55;68.68;101081.94;5030167;28;20242;-67
2023/01/10 07:17:09;;;;;;;23.77;5.83;;;;;;;8.57;68.36;101070.31;5029705;28;20215;-67
2023/01/10 07:19:39;;;;;;;15.03;2.60;;;;;;;8.57;68.24;101086.16;5029407;28;20236;-65
2023/01/10 07:22:06;;;;;;;11.53;2.33;;;;;;;8.62;68.11;101099.84;5030566;28;20215;-66
2023/01/10 07:24:34;;;;;;;13.17;3.60;;;;;;;8.61;68.15;101103.50;5027857;28;20220;-67
2023/01/10 07:27:02;;;;;;;19.67;5.10;;;;;;;8.64;67.96;101105.88;5030954;28;20223;-66
2023/01/10 07:29:29;;;;;;;11.83;2.87;;;;;;;8.67;67.45;101110.94;5028385;28;20221;-68
2023/01/10 07:31:57;;;;;;;16.90;6.00;;;;;;;8.64;67.71;101116.44;5031050;28;20209;-67
2023/01/10 07:34:25;;;;;;;10.93;2.70;;;;;;;8.67;67.51;101118.03;5029757;28;20223;-66
2023/01/10 07:36:54;;;;;;;16.20;3.23;;;;;;;8.72;67.39;101113.19;5029732;28;20204;-68
2023/01/10 07:39:22;;;;;;;10.47;2.93;;;;;;;8.78;67.22;101118.03;5031780;28;20648;-68
2023/01/10 07:41:51;;;;;;;8.27;2.20;;;;;;;8.79;66.95;101127.66;5033414;28;20239;-67
2023/01/10 07:44:19;;;;;;;14.23;2.93;;;;;;;8.83;66.83;101130.88;5025384;28;20688;-68
2023/01/10 07:46:47;;;;;;;16.70;2.60;;;;;;;8.84;66.45;101132.56;5030911;28;20239;-68
2023/01/10 07:49:14;;;;;;;11.73;2.60;;;;;;;8.79;66.42;101132.94;5031511;28;20210;-68
2023/01/10 07:51:42;;;;;;;13.90;2.50;;;;;;;8.77;66.64;101136.66;5029870;28;20244;-69
2023/01/10 07:54:12;;;;;;;12.93;3.23;;;;;;;8.83;66.37;101133.50;5029124;28;20310;-68
2023/01/10 07:56:41;;;;;;;9.23;2.50;;;;;;;8.91;66.23;101139.03;5028662;28;20227;-68
2023/01/10 07:59:09;;;;;;;13.37;2.30;;;;;;;8.90;65.73;101145.28;5033094;28;20234;-68
2023/01/10 08:01:37;;;;;;;7.30;2.23;;;;;;;8.86;65.72;101150.00;5034069;28;20215;-69
2023/01/10 08:04:05;;;;;;;12.53;2.93;;;;;;;8.93;65.57;101150.34;5028936;28;20227;-69
2023/01/10 08:06:33;;;;;;;13.30;2.93;;;;;;;8.95;65.25;101153.72;5026442;28;20248;-69
2023/01/10 08:09:02;;;;;;;13.10;2.47;;;;;;;8.94;64.96;101157.31;5031642;28;20323;-69
2023/01/10 08:11:31;;;;;;;10.70;2.27;;;;;;;8.90;64.77;101150.56;5032722;28;20222;-69
2023/01/10 08:13:59;;;;;;;13.37;2.77;;;;;;;8.89;64.62;101155.03;5034119;28;21034;-69
2023/01/10 08:16:27;;;;;;;12.17;3.40;;;;;;;9.01;64.60;101158.53;5031408;28;20304;-69
2023/01/10 08:18:55;;;;;;;23.17;10.00;;;;;;;8.97;64.18;101162.38;5033596;28;20232;-68
2023/01/10 08:21:23;;;;;;;21.07;5.77;;;;;;;8.96;64.17;101166.00;5030272;28;20215;-69
2023/01/10 08:23:51;;;;;;;10.60;2.50;;;;;;;8.97;63.77;101162.38;5030222;28;20211;-69
2023/01/10 08:26:19;;;;;;;10.90;2.40;;;;;;;8.93;64.18;101161.78;5027216;28;20299;-72
2023/01/10 08:28:48;;;;;;;11.47;2.87;;;;;;;9.00;64.07;101160.31;5033271;28;20260;-71
2023/01/10 08:31:16;;;;;;;11.63;2.80;;;;;;;9.10;63.61;101165.72;5033789;28;20214;-69
2023/01/10 08:33:44;;;;;;;17.83;3.00;;;;;;;9.14;63.65;101163.69;5034178;28;20225;-70
2023/01/10 08:36:16;;;;;;;11.43;3.13;;;;;;;9.13;63.73;101173.44;5029138;28;20811;-68
2023/01/10 08:38:44;;;;;;;11.00;2.87;;;;;;;9.17;63.59;101185.44;5029462;28;20243;-69
2023/01/10 08:41:12;;;;;;;17.63;4.90;;;;;;;9.22;63.23;101178.00;5029667;28;20214;-68
2023/01/10 08:43:40;;;;;;;17.40;3.33;;;;;;;9.26;62.87;101183.88;5033842;28;20235;-70
2023/01/10 08:46:09;;;;;;;11.17;2.67;;;;;;;9.26;62.83;101179.41;5031650;28;20630;-68
2023/01/10 08:48:37;;;;;;;13.47;2.30;;;;;;;9.19;62.62;101186.16;5027900;28;20220;-68
2023/01/10 08:51:07;;;;;;;14.03;2.77;;;;;;;9.06;62.94;101188.94;5037589;28;20835;-69
2023/01/10 08:53:36;;;;;;;11.00;2.37;;;;;;;9.12;62.83;101198.19;5036442;28;20973;-70
2023/01/10 08:56:04;;;;;;;12.90;2.80;;;;;;;9.18;62.97;101202.16;5038007;28;20728;-69
2023/01/10 08:58:32;;;;;;;10.93;2.13;;;;;;;9.19;62.88;101202.03;5034423;28;20268;-73
2023/01/10 09:01:03;;;;;;;12.33;2.47;;;;;;;9.21;62.71;101194.84;5032479;28;20638;-69
2023/01/10 09:03:32;;;;;;;13.53;2.57;;;;;;;9.16;62.54;101193.50;5034686;28;20898;-69
2023/01/10 09:06:01;;;;;;;12.63;3.03;;;;;;;9.10;62.31;101196.63;5031193;28;20243;-67
2023/01/10 09:08:29;;;;;;;11.27;2.00;;;;;;;9.12;62.42;101200.84;5031165;28;20273;-70
2023/01/10 09:10:58;;;;;;;11.03;2.10;;;;;;;9.11;62.22;101199.16;5029510;28;20219;-69
2023/01/10 09:13:26;;;;;;;8.00;2.03;;;;;;;9.17;62.50;101196.03;5032023;28;20747;-68
2023/01/10 09:15:55;;;;;;;14.90;3.43;;;;;;;9.16;62.50;101204.91;5027498;28;20210;-69
2023/01/10 09:18:23;;;;;;;13.70;3.27;;;;;;;9.16;62.99;101215.50;5030146;28;20254;-68
2023/01/10 09:20:53;;;;;;;10.40;2.90;;;;;;;9.11;62.68;101224.78;5029538;28;20214;-69
2023/01/10 09:23:22;;;;;;;11.77;3.20;;;;;;;9.04;63.51;101216.50;5029202;28;20259;-70
2023/01/10 09:25:52;;;;;;;7.27;2.40;;;;;;;9.06;63.25;101233.91;5028671;28;20208;-69
2023/01/10 09:28:20;;;;;;;12.20;2.63;;;;;;;9.12;62.65;101237.91;5031338;28;20239;-69
2023/01/10 09:30:48;;;;;;;13.40;2.70;;;;;;;9.19;62.78;101241.75;5033406;28;20212;-70
2023/01/10 09:33:16;;;;;;;13.50;2.73;;;;;;;9.23;62.71;101240.56;5029833;28;20222;-67
2023/01/10 09:35:44;;;;;;;11.10;2.90;;;;;;;9.29;62.26;101241.84;5029712;28;20204;-68
2023/01/10 09:38:15;;;;;;;12.27;2.83;;;;;;;9.24;62.52;101242.22;5032341;28;20212;-70
2023/01/10 09:41:00;;;;;;;14.40;2.90;;;;;;;9.17;62.72;101238.38;5030913;28;20912;-70
2023/01/10 09:43:42;;;;;;;10.90;2.97;;;;;;;9.03;63.57;101249.19;5031917;28;20211;-70
2023/01/10 09:46:17;;;;;;;11.93;2.97;;;;;;;9.00;64.32;101254.72;5028702;28;20232;-70
2023/01/10 09:48:51;;;;;;;12.50;2.50;;;;;;;8.91;65.03;101260.72;5031527;28;20563;-69
2023/01/10 09:51:31;;;;;;;24.53;12.23;;;;;;;8.88;65.71;101259.13;5031310;28;20765;-71
2023/01/10 09:54:06;;;;;;;12.90;3.47;;;;;;;8.88;65.52;101263.63;5028693;28;20597;-71
2023/01/10 09:56:40;;;;;;;11.83;2.80;;;;;;;9.01;65.19;101261.69;5029550;28;20202;-71
2023/01/10 09:59:13;;;;;;;16.50;2.77;;;;;;;9.06;65.40;101263.00;5028333;28;20265;-70
2023/01/10 10:01:41;;;;;;;11.57;3.57;;;;;;;9.11;65.16;101259.19;5030743;28;20234;-69
2023/01/10 10:04:19;;;;;;;10.87;2.67;;;;;;;9.18;64.72;101261.22;5034265;28;20207;-68
2023/01/10 10:06:48;;;;;;;10.60;2.27;;;;;;;9.16;65.09;101272.88;5028833;28;20239;-67
2023/01/10 10:09:23;;;;;;;15.90;2.73;;;;;;;9.24;64.57;101268.66;5022969;28;20205;-69
2023/01/10 10:12:04;;;;;;;10.70;2.60;;;;;;;9.24;63.90;101266.03;5030967;28;20207;-69
2023/01/10 10:14:45;;;;;;;13.60;3.00;;;;;;;9.34;63.46;101256.41;5039863;28;20636;-69
2023/01/10 10:17:28;;;;;;;11.43;2.90;;;;;;;9.49;63.38;101253.53;5031350;28;20214;-68
2023/01/10 10:20:12;;;;;;;11.30;2.83;;;;;;;9.51;63.53;101264.81;5037392;28;20304;-67
2023/01/10 10:22:50;;;;;;;13.13;2.60;;;;;;;9.51;63.43;101264.81;5034595;28;20243;-67
2023/01/10 10:25:41;;;;;;;12.17;2.83;;;;;;;9.66;63.01;101256.50;5034653;28;20292;-67
2023/01/10 10:28:30;;;;;;;15.30;3.20;;;;;;;9.79;62.69;101246.59;5026478;28;20211;-66
2023/01/10 10:31:07;;;;;;;18.10;2.93;;;;;;;9.86;61.17;101257.53;5022698;28;20302;-67
2023/01/10 10:33:46;;;;;;;15.30;2.90;;;;;;;9.97;59.57;101254.00;5026266;28;20239;-68
2023/01/10 10:36:22;;;;;;;16.63;2.67;;;;;;;10.09;59.10;101253.84;5028976;28;20355;-67
2023/01/10 10:38:52;;;;;;;13.20;3.00;;;;;;;10.10;59.40;101252.06;5027875;28;20823;-68
2023/01/10 10:41:31;;;;;;;11.47;3.00;;;;;;;10.05;59.66;101257.72;5027719;28;20215;-67
2023/01/10 10:44:03;;;;;;;18.67;3.60;;;;;;;9.93;60.41;101248.13;5029958;28;20219;-68
2023/01/10 10:46:32;;;;;;;17.47;2.87;;;;;;;9.89;60.31;101254.63;5028546;28;20295;-69
2023/01/10 10:49:03;;;;;;;16.23;3.03;;;;;;;9.82;60.58;101256.09;5029814;28;20213;-68
2023/01/10 10:51:42;;;;;;;11.23;2.67;;;;;;;9.84;61.10;101254.19;5023721;28;20223;-68
2023/01/10 10:54:12;;;;;;;18.47;4.63;;;;;;;9.87;61.18;101245.13;5030075;28;20681;-68
2023/01/10 10:56:42;;;;;;;19.27;5.10;;;;;;;9.88;61.43;101247.66;5028715;28;20305;-69
2023/01/10 10:59:16;;;;;;;18.83;3.17;;;;;;;9.71;59.76;101254.31;5029113;28;20224;-69
2023/01/10 11:01:46;;;;;;;11.27;2.67;;;;;;;9.66;60.23;101239.78;5025899;28;20215;-68
2023/01/10 11:04:18;;;;;;;15.80;3.00;;;;;;;9.71;60.58;101241.06;5028194;28;20652;-68
2023/01/10 11:06:48;;;;;;;15.70;3.43;;;;;;;9.88;61.15;101229.09;5025527;28;20399;-70
2023/01/10 11:09:19;;;;;;;15.03;2.87;;;;;;;10.13;59.45;101227.94;5023660;28;20209;-70
2023/01/10 11:11:51;;;;;;;19.10;3.57;;;;;;;10.38;59.42;101230.25;5029406;28;20668;-70
2023/01/10 11:14:40;;;;;;;14.17;2.30;;;;;;;10.46;59.01;101230.47;5023492;28;20207;-69
2023/01/10 11:17:19;;;;;;;19.60;2.97;;;;;;;11.46;57.64;101228.84;5027986;28;20221;-70
2023/01/10 11:19:56;;;;;;;19.47;3.30;;;;;;;12.65;54.17;101221.53;5027347;28;20244;-69
2023/01/10 11:22:24;;;;;;;17.33;3.03;;;;;;;14.22;50.32;101215.13;5028512;28;20223;-68
2023/01/10 11:24:55;;;;;;;14.27;2.40;;;;;;;15.71;46.44;101218.34;5024303;28;20916;-67
2023/01/10 11:27:27;;;;;;;14.50;3.20;;;;;;;16.64;43.27;101223.44;5030158;28;20314;-68
2023/01/10 11:29:58;;;;;;;13.20;3.10;;;;;;;16.39;43.18;101211.91;5024165;28;20215;-67
2023/01/10 11:32:33;;;;;;;12.90;2.90;;;;;;;15.60;44.44;101220.47;5028521;28;20307;-67
2023/01/10 11:35:05;;;;;;;13.27;2.87;;;;;;;14.57;46.75;101232.94;5032787;28;20303;-68
2023/01/10 11:37:35;;;;;;;13.87;3.90;;;;;;;13.87;48.26;101237.28;5031674;28;20216;-67
2023/01/10 11:40:19;;;;;;;12.47;2.83;;;;;;;13.64;48.45;101244.00;5026585;28;20233;-67
2023/01/10 11:42:48;;;;;;;13.43;3.13;;;;;;;13.50;48.29;101239.19;5027013;28;20665;-68
2023/01/10 11:45:30;;;;;;;14.43;2.90;;;;;;;13.36;48.42;101229.03;5027750;28;20219;-68
2023/01/10 11:48:09;;;;;;;14.70;2.80;;;;;;;13.25;49.14;101234.53;5028442;28;20601;-67
2023/01/10 11:50:41;;;;;;;16.03;3.17;;;;;;;13.03;49.23;101238.38;5026063;28;20307;-68
2023/01/10 11:53:34;;;;;;;14.30;3.33;;;;;;;12.78;49.50;101238.03;5030274;28;20207;-68
2023/01/10 11:56:03;;;;;;;11.13;2.67;;;;;;;12.54;50.45;101228.84;5029103;28;20691;-68
2023/01/10 11:58:34;;;;;;;11.53;2.57;;;;;;;12.19;51.38;101229.41;5027344;28;20508;-68